Eviapetrol II — SY6858 — position and weather

sailwx.info

Track history (hours):
 
Tides and Currents Weather Stations Pressure Air Temp Water Temp Dewpoint Dewpoint Depression Visibility Wind Speed Wind Dir Waves Ship Positions

Eviapetrol II

Last reported at 2016-Jul-27 12:34 UTC. Time now 2016-Jul-27 13:24 UTC.
Position N 37°58' E 023°25'.

Length 78 m; draft 4.3 m.

Type: Tanker. MMSI: 240493000.

Date/timePositionNaut miles runAvg speedWind from/ knotsBaromVisibWave heightAir tempDewpointWater temp
2016-Jul-27 12:34N 37°58' E 023°25'1110.8
2016-Jul-27 11:33N 37°55' E 023°12'29 9.2
2016-Jul-27 08:22N 38°07' E 022°38'1410.5
2016-Jul-27 07:03N 38°13' E 022°22'  
2016-Jul-24 23:26N 38°10' E 022°29'29 9.8
2016-Jul-24 20:29N 37°55' E 023°01'9 9.3
2016-Jul-24 19:33N 37°54' E 023°11'1111.2
2016-Jul-24 18:34N 37°58' E 023°25'6 6.3
2016-Jul-24 17:33N 38°02' E 023°30'0 0.0
2016-Jul-24 16:33N 38°02' E 023°30'0 0.0
2016-Jul-24 15:34N 38°02' E 023°30'0 0.0
2016-Jul-24 14:33N 38°02' E 023°30'0 0.0
2016-Jul-24 13:33N 38°02' E 023°30'0 0.0
2016-Jul-24 12:34N 38°02' E 023°30'0 0.0
2016-Jul-24 11:33N 38°02' E 023°30'0 0.0
2016-Jul-24 10:33N 38°02' E 023°30'0 0.0
2016-Jul-24 09:33N 38°02' E 023°31'0 0.0
2016-Jul-24 08:33N 38°02' E 023°30'0 0.0
2016-Jul-24 07:33N 38°02' E 023°30'0 0.0
2016-Jul-24 06:33N 38°02' E 023°30'1 1.4
2016-Jul-24 05:33N 38°02' E 023°32'0 0.0
2016-Jul-24 04:33N 38°02' E 023°32'0 0.0
2016-Jul-24 03:33N 38°02' E 023°32'0 0.1
2016-Jul-24 02:33N 38°02' E 023°32'0 0.0
2016-Jul-24 01:33N 38°02' E 023°32'0 0.0
2016-Jul-24 00:33N 38°02' E 023°32'0 0.0
2016-Jul-23 23:33N 38°02' E 023°32'0 0.0
2016-Jul-23 22:33N 38°02' E 023°32'0 0.0
2016-Jul-23 21:34N 38°02' E 023°32'0 0.1
2016-Jul-23 20:33N 38°02' E 023°32'0 0.0
2016-Jul-23 19:33N 38°02' E 023°32'0 0.0
2016-Jul-23 18:34N 38°02' E 023°32'3 2.8
2016-Jul-23 17:33N 38°02' E 023°36'0 0.0
2016-Jul-23 16:33N 38°02' E 023°36'0 0.0
2016-Jul-23 15:33N 38°02' E 023°36'0 0.0
2016-Jul-23 14:33N 38°02' E 023°36'0 0.0
2016-Jul-23 13:33N 38°02' E 023°36'5 4.7
2016-Jul-23 12:33N 37°57' E 023°33'10 9.5
2016-Jul-23 11:33N 37°49' E 023°40'1111.3
2016-Jul-23 10:33N 37°39' E 023°46'1110.8
2016-Jul-23 09:33N 37°29' E 023°51'1110.7
2016-Jul-23 08:32N 37°19' E 023°55'1210.8
2016-Jul-23 07:26N 37°08' E 024°00'17 0.4
2016-Jul-21 14:33N 37°24' E 023°51'1010.4
2016-Jul-21 13:33N 37°33' E 023°46'1110.7
2016-Jul-21 12:34N 37°43' E 023°40'1010.3
2016-Jul-21 11:33N 37°52' E 023°36'9 8.9
2016-Jul-21 10:33N 38°01' E 023°32'1 1.0
2016-Jul-21 09:33N 38°02' E 023°32'0 0.0
2016-Jul-21 08:33N 38°02' E 023°32'0 0.0
2016-Jul-21 07:33N 38°02' E 023°32'3 2.6
2016-Jul-21 06:34N 38°02' E 023°35'0 0.3
2016-Jul-21 05:28N 38°02' E 023°36'0 0.0
2016-Jul-21 04:16N 38°02' E 023°36'0 0.0
2016-Jul-21 03:28N 38°02' E 023°36'0 0.0
2016-Jul-21 02:22N 38°02' E 023°36'0 0.0
2016-Jul-21 01:28N 38°02' E 023°36'0 0.0
2016-Jul-21 00:31N 38°02' E 023°36'0 0.0
2016-Jul-20 23:28N 38°02' E 023°36'0 0.0
2016-Jul-20 22:31N 38°02' E 023°36'0 0.0
2016-Jul-20 21:28N 38°02' E 023°36'0 0.0
2016-Jul-20 20:28N 38°02' E 023°36'0 0.0
2016-Jul-20 19:31N 38°02' E 023°36'0 0.0
2016-Jul-20 18:33N 38°02' E 023°36'5 4.8
2016-Jul-20 17:34N 37°57' E 023°35'7 6.7
2016-Jul-20 16:33N 37°52' E 023°39'1110.9
2016-Jul-20 15:33N 37°41' E 023°45'1111.0
2016-Jul-20 14:33N 37°33' E 023°53'  
2016-Jul-17 22:07N 37°19' E 023°46'610.7
2016-Jul-17 21:34N 37°25' E 023°46'1110.8
2016-Jul-17 20:34N 37°36' E 023°43'1110.9
2016-Jul-17 19:33N 37°46' E 023°38'10 9.9
2016-Jul-17 18:33N 37°51' E 023°27'8 7.8
2016-Jul-17 17:34N 37°59' E 023°25'6 5.6
2016-Jul-17 16:34N 38°02' E 023°31'0 0.0
2016-Jul-17 15:33N 38°02' E 023°31'0 0.0
2016-Jul-17 14:33N 38°02' E 023°31'0 0.0
2016-Jul-17 13:33N 38°02' E 023°31'  
Track history (hours):
 
Tides and Currents Weather Stations Pressure Air Temp Water Temp Dewpoint Dewpoint Depression Visibility Wind Speed Wind Dir Waves Ship Positions

Eviapetrol II

Last reported at 2016-Jul-27 12:34 UTC. Time now 2016-Jul-27 13:24 UTC.
Position N 37°58' E 023°25'.

Length 78 m; draft 4.3 m.

Type: Tanker. MMSI: 240493000.

Date/timePositionNaut miles runAvg speedWind from/ knotsBaromVisibWave heightAir tempDewpointWater temp
2016-Jul-27 12:34N 37°58' E 023°25'1110.8
2016-Jul-27 11:33N 37°55' E 023°12'29 9.2
2016-Jul-27 08:22N 38°07' E 022°38'1410.5
2016-Jul-27 07:03N 38°13' E 022°22'  
2016-Jul-24 23:26N 38°10' E 022°29'29 9.8
2016-Jul-24 20:29N 37°55' E 023°01'9 9.3
2016-Jul-24 19:33N 37°54' E 023°11'1111.2
2016-Jul-24 18:34N 37°58' E 023°25'6 6.3
2016-Jul-24 17:33N 38°02' E 023°30'0 0.0
2016-Jul-24 16:33N 38°02' E 023°30'0 0.0
2016-Jul-24 15:34N 38°02' E 023°30'0 0.0
2016-Jul-24 14:33N 38°02' E 023°30'0 0.0
2016-Jul-24 13:33N 38°02' E 023°30'0 0.0
2016-Jul-24 12:34N 38°02' E 023°30'0 0.0
2016-Jul-24 11:33N 38°02' E 023°30'0 0.0
2016-Jul-24 10:33N 38°02' E 023°30'0 0.0
2016-Jul-24 09:33N 38°02' E 023°31'0 0.0
2016-Jul-24 08:33N 38°02' E 023°30'0 0.0
2016-Jul-24 07:33N 38°02' E 023°30'0 0.0
2016-Jul-24 06:33N 38°02' E 023°30'1 1.4
2016-Jul-24 05:33N 38°02' E 023°32'0 0.0
2016-Jul-24 04:33N 38°02' E 023°32'0 0.0
2016-Jul-24 03:33N 38°02' E 023°32'0 0.1
2016-Jul-24 02:33N 38°02' E 023°32'0 0.0
2016-Jul-24 01:33N 38°02' E 023°32'0 0.0
2016-Jul-24 00:33N 38°02' E 023°32'0 0.0
2016-Jul-23 23:33N 38°02' E 023°32'0 0.0
2016-Jul-23 22:33N 38°02' E 023°32'0 0.0
2016-Jul-23 21:34N 38°02' E 023°32'0 0.1
2016-Jul-23 20:33N 38°02' E 023°32'0 0.0
2016-Jul-23 19:33N 38°02' E 023°32'0 0.0
2016-Jul-23 18:34N 38°02' E 023°32'3 2.8
2016-Jul-23 17:33N 38°02' E 023°36'0 0.0
2016-Jul-23 16:33N 38°02' E 023°36'0 0.0
2016-Jul-23 15:33N 38°02' E 023°36'0 0.0
2016-Jul-23 14:33N 38°02' E 023°36'0 0.0
2016-Jul-23 13:33N 38°02' E 023°36'5 4.7
2016-Jul-23 12:33N 37°57' E 023°33'10 9.5
2016-Jul-23 11:33N 37°49' E 023°40'1111.3
2016-Jul-23 10:33N 37°39' E 023°46'1110.8
2016-Jul-23 09:33N 37°29' E 023°51'1110.7
2016-Jul-23 08:32N 37°19' E 023°55'1210.8
2016-Jul-23 07:26N 37°08' E 024°00'17 0.4
2016-Jul-21 14:33N 37°24' E 023°51'1010.4
2016-Jul-21 13:33N 37°33' E 023°46'1110.7
2016-Jul-21 12:34N 37°43' E 023°40'1010.3
2016-Jul-21 11:33N 37°52' E 023°36'9 8.9
2016-Jul-21 10:33N 38°01' E 023°32'1 1.0
2016-Jul-21 09:33N 38°02' E 023°32'0 0.0
2016-Jul-21 08:33N 38°02' E 023°32'0 0.0
2016-Jul-21 07:33N 38°02' E 023°32'3 2.6
2016-Jul-21 06:34N 38°02' E 023°35'0 0.3
2016-Jul-21 05:28N 38°02' E 023°36'0 0.0
2016-Jul-21 04:16N 38°02' E 023°36'0 0.0
2016-Jul-21 03:28N 38°02' E 023°36'0 0.0
2016-Jul-21 02:22N 38°02' E 023°36'0 0.0
2016-Jul-21 01:28N 38°02' E 023°36'0 0.0
2016-Jul-21 00:31N 38°02' E 023°36'0 0.0
2016-Jul-20 23:28N 38°02' E 023°36'0 0.0
2016-Jul-20 22:31N 38°02' E 023°36'0 0.0
2016-Jul-20 21:28N 38°02' E 023°36'0 0.0
2016-Jul-20 20:28N 38°02' E 023°36'0 0.0
2016-Jul-20 19:31N 38°02' E 023°36'0 0.0
2016-Jul-20 18:33N 38°02' E 023°36'5 4.8
2016-Jul-20 17:34N 37°57' E 023°35'7 6.7
2016-Jul-20 16:33N 37°52' E 023°39'1110.9
2016-Jul-20 15:33N 37°41' E 023°45'1111.0
2016-Jul-20 14:33N 37°33' E 023°53'  
2016-Jul-17 22:07N 37°19' E 023°46'610.7
2016-Jul-17 21:34N 37°25' E 023°46'1110.8
2016-Jul-17 20:34N 37°36' E 023°43'1110.9
2016-Jul-17 19:33N 37°46' E 023°38'10 9.9
2016-Jul-17 18:33N 37°51' E 023°27'8 7.8
2016-Jul-17 17:34N 37°59' E 023°25'6 5.6
2016-Jul-17 16:34N 38°02' E 023°31'0 0.0
2016-Jul-17 15:33N 38°02' E 023°31'0 0.0
2016-Jul-17 14:33N 38°02' E 023°31'0 0.0
2016-Jul-17 13:33N 38°02' E 023°31'  

Dump ship's entire track history